Amboy, Washington
Current Conditions -  °F | °C
As of 4:53 AM on Friday 31 Oct 2014 (Local Time) from KSPB Reporting Station
Moderate Rain Moderate Rain  
Wind Chill: 53°   Ceiling: 1900
Heat Index: 53°   Visibility: 3mi
Dew Point: 52°   Wind: 0mph
Humidity: 96%   Direction: NA
Pressure: 29.68"   Gusts: NA
Location:  45.91°N, 122.45°W
Report Text: KSPB 311153Z AUTO 00000KT 3SM RA BR OVC019 12/11 A2968 RMK AO2 SLP051 P0011 60036 70097 T01170111 10139 20117 56016
Loading
Personal Weather Stations






























Interactive Weather Map
Tropical Storm Tracking
New forecast layout! Learn more

10-Day Weather Forecast

Advertisements
Track Severe Weather on mobile